Time;durP1;ratioP1;P1;durP2;ratioP2;P2;SDS_P1;SDS_P2;PMS_P1;PMS_P2;Temp;Humidity;BMP_temperature;BMP_pressure;BME280_temperature;BME280_humidity;BME280_pressure;Samples;Min_cycle;Max_cycle;Signal;HPM_P1;HPM_P2
2021/04/01 00:00:08;;;;;;;9.10;6.70;;;12.60;66.10;;;;;;5101381;28;20430;-43
2021/04/01 00:02:34;;;;;;;8.00;6.07;;;12.60;67.00;;;;;;5101856;28;20437;-43
2021/04/01 00:05:00;;;;;;;13.03;6.47;;;12.60;67.30;;;;;;5101979;28;20477;-44
2021/04/01 00:07:26;;;;;;;10.73;8.00;;;12.60;66.60;;;;;;5101657;28;20179;-44
2021/04/01 00:09:51;;;;;;;8.63;6.40;;;12.60;67.10;;;;;;5101828;28;20516;-44
2021/04/01 00:12:17;;;;;;;7.80;7.00;;;12.50;67.60;;;;;;5101920;28;20843;-43
2021/04/01 00:14:43;;;;;;;13.90;6.40;;;12.50;68.50;;;;;;5083676;28;20240;-42
2021/04/01 00:17:10;;;;;;;8.50;6.97;;;12.50;69.30;;;;;;5101548;28;20176;-42
2021/04/01 00:19:35;;;;;;;8.40;6.97;;;12.40;70.70;;;;;;5101707;28;20442;-44
2021/04/01 00:22:01;;;;;;;8.00;6.27;;;12.30;70.40;;;;;;5101611;28;20442;-44
2021/04/01 00:24:27;;;;;;;6.87;6.20;;;12.30;71.50;;;;;;5101925;28;20444;-44
2021/04/01 00:26:52;;;;;;;8.17;6.70;;;12.20;71.80;;;;;;5102091;28;20197;-43
2021/04/01 00:29:19;;;;;;;10.40;8.60;;;12.20;72.80;;;;;;5101705;28;20251;-44
2021/04/01 00:31:44;;;;;;;8.40;7.03;;;12.10;73.60;;;;;;5101930;28;20176;-45
2021/04/01 00:34:10;;;;;;;7.20;6.50;;;12.10;74.50;;;;;;5101633;28;20572;-44
2021/04/01 00:36:36;;;;;;;10.03;7.00;;;12.00;74.40;;;;;;5101127;28;20169;-44
2021/04/01 00:39:02;;;;;;;6.73;6.10;;;12.00;75.10;;;;;;5101533;28;20168;-44
2021/04/01 00:41:27;;;;;;;7.83;6.77;;;11.90;75.40;;;;;;5101762;28;20242;-44
2021/04/01 00:43:53;;;;;;;7.10;6.23;;;11.90;76.10;;;;;;5083467;28;20430;-44
2021/04/01 00:46:19;;;;;;;6.27;5.67;;;11.90;76.50;;;;;;5100565;28;20207;-44
2021/04/01 00:48:44;;;;;;;7.47;6.57;;;11.80;76.70;;;;;;5101529;28;20188;-42
2021/04/01 00:51:10;;;;;;;7.80;7.00;;;11.80;77.00;;;;;;5101385;28;20175;-44
2021/04/01 00:53:36;;;;;;;6.67;5.97;;;11.80;77.10;;;;;;5101078;28;20436;-43
2021/04/01 00:56:02;;;;;;;8.13;7.07;;;11.70;77.70;;;;;;5100915;28;20173;-44
2021/04/01 00:58:29;;;;;;;8.53;7.00;;;11.70;78.00;;;;;;5101049;28;20594;-43
2021/04/01 01:03:39;;;;;;;6.87;6.20;;;11.60;78.50;;;;;;5101044;28;20862;-43
2021/04/01 01:06:17;;;;;;;6.87;5.90;;;11.60;78.70;;;;;;5083146;28;20458;-44
2021/04/01 01:08:43;;;;;;;6.83;5.60;;;11.50;78.30;;;;;;5101055;28;20173;-44
2021/04/01 01:11:09;;;;;;;6.97;6.27;;;11.50;78.70;;;;;;5099540;28;20513;-42
2021/04/01 01:13:35;;;;;;;11.43;7.30;;;11.50;79.00;;;;;;5100390;28;20565;-43
2021/04/01 01:16:01;;;;;;;10.13;6.40;;;11.50;80.00;;;;;;5082792;28;20433;-43
2021/04/01 01:18:28;;;;;;;8.00;6.63;;;11.40;79.80;;;;;;5100555;28;20445;-43
2021/04/01 01:20:59;;;;;;;8.07;7.10;;;11.40;80.00;;;;;;5100553;28;20183;-41
2021/04/01 01:23:26;;;;;;;10.10;6.37;;;11.40;80.20;;;;;;5100522;28;20410;-42
2021/04/01 01:25:56;;;;;;;8.23;7.07;;;11.40;80.30;;;;;;5100647;28;20519;-43
2021/04/01 01:28:23;;;;;;;7.40;6.70;;;11.30;80.30;;;;;;5101055;28;20875;-44
2021/04/01 01:30:49;;;;;;;8.63;7.33;;;11.30;80.90;;;;;;5100080;28;20514;-43
2021/04/01 01:33:19;;;;;;;8.37;6.17;;;11.20;81.00;;;;;;5100117;28;20410;-43
2021/04/01 01:35:46;;;;;;;7.93;6.80;;;11.20;81.40;;;;;;5100668;28;20421;-43
2021/04/01 01:38:12;;;;;;;11.57;7.67;;;11.10;81.70;;;;;;5100235;28;20410;-44
2021/04/01 01:40:38;;;;;;;8.47;6.13;;;11.10;82.00;;;;;;5100166;28;20483;-44
2021/04/01 01:43:06;;;;;;;6.80;6.10;;;11.10;81.90;;;;;;5100216;28;20824;-43
2021/04/01 01:45:33;;;;;;;8.50;6.40;;;11.10;82.10;;;;;;5099617;28;20280;-43
2021/04/01 01:47:59;;;;;;;8.77;7.00;;;11.10;82.60;;;;;;5099565;28;20458;-43
2021/04/01 01:50:27;;;;;;;8.40;6.57;;;11.10;82.90;;;;;;5099839;28;20492;-44
2021/04/01 01:52:53;;;;;;;11.63;6.77;;;11.00;82.90;;;;;;5100022;28;20451;-43
2021/04/01 01:55:19;;;;;;;8.27;6.43;;;10.90;82.90;;;;;;5099697;28;20454;-43
2021/04/01 01:57:44;;;;;;;11.97;7.20;;;10.90;83.30;;;;;;5099680;28;20442;-43
2021/04/01 02:00:40;;;;;;;10.63;7.53;;;10.90;83.70;;;;;;5099522;28;20426;-43
2021/04/01 02:03:07;;;;;;;12.60;8.10;;;10.90;84.10;;;;;;5071196;28;20200;-41
2021/04/01 02:05:34;;;;;;;9.73;7.60;;;10.80;84.00;;;;;;5099979;28;20892;-44
2021/04/01 02:08:00;;;;;;;8.87;7.07;;;10.80;83.90;;;;;;5099898;28;20414;-43
2021/04/01 02:10:47;;;;;;;9.07;7.00;;;10.80;84.00;;;;;;5081667;28;20423;-41
2021/04/01 02:13:15;;;;;;;8.20;7.27;;;10.80;84.00;;;;;;5099054;28;20426;-43
2021/04/01 02:15:42;;;;;;;7.90;6.80;;;10.70;84.10;;;;;;5099273;28;20828;-44
2021/04/01 02:18:13;;;;;;;10.07;7.33;;;10.70;84.60;;;;;;5099172;28;20598;-44
2021/04/01 02:20:46;;;;;;;8.57;7.80;;;10.70;84.40;;;;;;5096523;28;20430;-43
2021/04/01 02:23:14;;;;;;;10.70;7.00;;;10.60;84.50;;;;;;5078917;28;20536;-44
2021/04/01 02:25:41;;;;;;;9.77;7.73;;;10.60;85.10;;;;;;5078326;28;20798;-43
2021/04/01 02:28:08;;;;;;;9.50;7.60;;;10.60;85.30;;;;;;5078753;28;20706;-44
2021/04/01 02:30:34;;;;;;;8.07;7.27;;;10.60;85.30;;;;;;5078243;28;20431;-43
2021/04/01 02:33:00;;;;;;;9.13;6.83;;;10.50;85.10;;;;;;5079267;28;20416;-43
2021/04/01 02:35:27;;;;;;;8.93;7.67;;;10.50;85.60;;;;;;5078926;28;20476;-43
2021/04/01 02:37:53;;;;;;;8.30;7.00;;;10.50;85.60;;;;;;5078113;28;20445;-43
2021/04/01 02:40:19;;;;;;;13.10;8.40;;;10.50;85.90;;;;;;5064583;28;20434;-44
2021/04/01 02:42:45;;;;;;;8.77;7.50;;;10.50;86.00;;;;;;5098367;28;20483;-44
2021/04/01 02:45:12;;;;;;;11.43;7.80;;;10.40;85.60;;;;;;5098562;28;20506;-43
2021/04/01 02:47:38;;;;;;;11.37;8.00;;;10.40;85.90;;;;;;5098615;28;20436;-44
2021/04/01 02:50:08;;;;;;;11.30;8.47;;;10.40;85.90;;;;;;5097105;28;20530;-44
2021/04/01 02:52:34;;;;;;;9.73;8.10;;;10.40;86.00;;;;;;5092537;28;20478;-43
2021/04/01 02:55:00;;;;;;;13.57;8.00;;;10.40;85.90;;;;;;5078379;28;20525;-44
2021/04/01 02:57:26;;;;;;;10.03;7.30;;;10.40;86.00;;;;;;5078476;28;20499;-43
2021/04/01 02:59:51;;;;;;;11.57;8.80;;;10.40;86.40;;;;;;5078566;28;20446;-43
2021/04/01 03:02:18;;;;;;;8.73;7.83;;;10.30;86.50;;;;;;5078279;28;20458;-44
2021/04/01 03:04:46;;;;;;;10.57;8.27;;;10.30;86.40;;;;;;5078567;28;20234;-44
2021/04/01 03:07:12;;;;;;;12.10;8.90;;;10.40;86.20;;;;;;5078462;28;20851;-43
2021/04/01 03:09:37;;;;;;;9.57;7.70;;;10.30;85.90;;;;;;5078431;28;20665;-43
2021/04/01 03:12:04;;;;;;;11.73;8.03;;;10.30;86.30;;;;;;5078417;28;20214;-42
2021/04/01 03:14:30;;;;;;;9.73;7.73;;;10.20;86.90;;;;;;5078037;28;20689;-42
2021/04/01 03:16:55;;;;;;;12.20;7.10;;;10.20;87.30;;;;;;5077975;28;20424;-43
2021/04/01 03:19:21;;;;;;;11.40;8.30;;;10.10;87.30;;;;;;5078245;28;20204;-43
2021/04/01 03:21:47;;;;;;;9.83;7.60;;;10.10;87.50;;;;;;5077442;28;20238;-43
2021/04/01 03:24:14;;;;;;;13.70;8.00;;;10.10;87.70;;;;;;5077299;28;20481;-43
2021/04/01 03:26:40;;;;;;;9.40;8.40;;;10.10;87.70;;;;;;5077865;28;20424;-43
2021/04/01 03:29:06;;;;;;;9.50;8.50;;;10.00;87.60;;;;;;5077599;28;20823;-44
2021/04/01 03:31:32;;;;;;;10.30;9.13;;;10.00;88.10;;;;;;5077600;28;20796;-44
2021/04/01 03:33:58;;;;;;;11.70;8.10;;;10.00;88.00;;;;;;5077006;28;20477;-43
2021/04/01 03:36:24;;;;;;;11.67;8.73;;;10.00;87.90;;;;;;5077222;28;20889;-43
2021/04/01 03:38:50;;;;;;;11.10;7.87;;;10.00;88.30;;;;;;5077836;28;20242;-43
2021/04/01 03:41:16;;;;;;;11.53;8.00;;;10.00;88.20;;;;;;5077633;28;20215;-44
2021/04/01 03:43:42;;;;;;;9.47;8.40;;;10.00;88.20;;;;;;5077579;28;20431;-44
2021/04/01 03:46:08;;;;;;;11.60;8.37;;;10.00;88.20;;;;;;5077720;28;20480;-43
2021/04/01 03:48:34;;;;;;;10.50;8.43;;;9.90;89.70;;;;;;5077468;28;20289;-43
2021/04/01 03:51:00;;;;;;;12.80;8.53;;;9.90;89.70;;;;;;5077602;28;20419;-44
2021/04/01 03:53:26;;;;;;;10.23;8.50;;;9.90;90.00;;;;;;5077548;28;20185;-43
2021/04/01 03:55:52;;;;;;;13.83;9.93;;;9.90;90.00;;;;;;5077699;28;20469;-44
2021/04/01 04:13:58;;;;;;;13.80;9.07;;;9.80;90.20;;;;;;5077335;28;20900;-41
2021/04/01 04:16:24;;;;;;;9.23;8.03;;;9.80;90.30;;;;;;5076503;28;20474;-43
2021/04/01 04:18:50;;;;;;;8.43;7.57;;;9.80;90.20;;;;;;5077186;28;20427;-42
2021/04/01 04:21:17;;;;;;;10.90;7.57;;;9.70;90.20;;;;;;5077644;28;20264;-43
2021/04/01 04:23:47;;;;;;;10.43;8.20;;;9.70;90.10;;;;;;5076989;28;20423;-42
2021/04/01 04:26:15;;;;;;;10.03;7.40;;;9.70;90.30;;;;;;5077308;28;20422;-42
2021/04/01 04:28:41;;;;;;;14.20;8.90;;;9.70;90.40;;;;;;5076779;28;20523;-42
2021/04/01 04:31:07;;;;;;;14.90;10.77;;;9.70;90.30;;;;;;5076925;28;20427;-40
2021/04/01 04:33:33;;;;;;;11.87;9.70;;;9.70;90.40;;;;;;5076624;28;20431;-43
2021/04/01 04:36:00;;;;;;;10.10;8.40;;;9.60;90.40;;;;;;5076781;28;20467;-43
2021/04/01 04:38:27;;;;;;;11.53;8.73;;;9.60;90.60;;;;;;5076733;28;20717;-43
2021/04/01 04:40:57;;;;;;;11.13;9.40;;;9.60;90.50;;;;;;5077123;28;20518;-42
2021/04/01 04:43:27;;;;;;;10.37;8.80;;;9.60;90.60;;;;;;5075108;28;20433;-43
2021/04/01 04:45:54;;;;;;;11.60;8.77;;;9.60;90.70;;;;;;5081428;28;20438;-43
2021/04/01 04:48:23;;;;;;;13.07;9.10;;;9.50;90.70;;;;;;5082637;28;20491;-43
2021/04/01 04:50:49;;;;;;;12.50;8.23;;;9.50;90.80;;;;;;5080901;28;20429;-43
2021/04/01 04:53:15;;;;;;;11.27;9.27;;;9.50;90.80;;;;;;5092026;28;20525;-43
2021/04/01 04:55:47;;;;;;;14.90;9.00;;;9.50;90.90;;;;;;5100809;28;20462;-41
2021/04/01 04:58:20;;;;;;;10.17;8.30;;;9.40;91.30;;;;;;5100222;28;20414;-42
2021/04/01 05:06:36;;;;;;;9.90;8.50;;;9.30;91.30;;;;;;5098746;28;20905;-43
2021/04/01 05:09:03;;;;;;;15.40;8.90;;;9.30;91.30;;;;;;5100469;28;20867;-43
2021/04/01 05:11:31;;;;;;;15.03;9.43;;;9.30;91.40;;;;;;5082026;28;20844;-43
2021/04/01 05:13:56;;;;;;;11.00;9.33;;;9.30;91.40;;;;;;5098393;28;20490;-43
2021/04/01 05:16:22;;;;;;;11.40;9.10;;;9.30;91.30;;;;;;5098946;28;20553;-42
2021/04/01 05:18:48;;;;;;;13.30;9.20;;;9.40;91.40;;;;;;5098827;28;20215;-43
2021/04/01 05:21:16;;;;;;;15.93;9.90;;;9.40;91.30;;;;;;5099622;28;20172;-43
2021/04/01 05:24:01;;;;;;;11.50;8.30;;;9.40;91.30;;;;;;5099141;28;20431;-43
2021/04/01 05:26:56;;;;;;;15.80;9.07;;;9.40;91.40;;;;;;5099618;28;20422;-43
2021/04/01 05:29:30;;;;;;;13.07;8.57;;;9.40;91.40;;;;;;5100333;28;20856;-43
2021/04/01 05:31:56;;;;;;;12.77;9.10;;;9.40;91.40;;;;;;5099389;28;20422;-43
2021/04/01 05:34:24;;;;;;;12.60;8.70;;;9.50;91.40;;;;;;5098905;28;20517;-43
2021/04/01 05:36:52;;;;;;;10.47;9.37;;;9.50;91.30;;;;;;5099752;28;20340;-44
2021/04/01 05:39:20;;;;;;;10.77;8.23;;;9.50;91.30;;;;;;5099545;28;20891;-42
2021/04/01 05:41:51;;;;;;;12.03;8.60;;;9.60;91.40;;;;;;5099372;28;20502;-43
2021/04/01 05:44:28;;;;;;;13.50;9.10;;;9.60;91.40;;;;;;5099552;28;20414;-43
2021/04/01 06:05:42;;;;;;;13.93;9.30;;;10.50;90.10;;;;;;5076254;28;20415;-38
2021/04/01 06:08:14;;;;;;;15.70;10.80;;;10.60;89.70;;;;;;5076819;28;20411;-40
2021/04/01 06:10:40;;;;;;;14.37;8.63;;;10.70;88.80;;;;;;5076412;28;20415;-42
2021/04/01 06:13:13;;;;;;;14.83;10.73;;;10.90;88.90;;;;;;5076715;28;20514;-41
2021/04/01 06:15:39;;;;;;;13.70;11.07;;;11.10;88.00;;;;;;5089469;28;20629;-40
2021/04/01 06:18:13;;;;;;;10.10;9.10;;;11.20;87.90;;;;;;5097515;28;20403;-38
2021/04/01 06:20:42;;;;;;;13.10;9.10;;;11.30;87.50;;;;;;5080759;28;20454;-41
2021/04/01 06:23:09;;;;;;;14.00;10.00;;;11.50;87.00;;;;;;5068129;28;20737;-41
2021/04/01 06:25:37;;;;;;;11.30;8.90;;;11.60;86.10;;;;;;5057017;28;20770;-41
2021/04/01 06:28:06;;;;;;;11.63;9.73;;;11.80;85.80;;;;;;5096753;28;20415;-39
2021/04/01 06:30:59;;;;;;;12.40;10.10;;;12.00;85.60;;;;;;5098376;28;20423;-37
2021/04/01 06:33:27;;;;;;;12.00;9.80;;;12.20;85.10;;;;;;5098225;28;20513;-39
2021/04/01 06:35:59;;;;;;;10.80;9.20;;;12.40;84.30;;;;;;5097368;28;20470;-42
2021/04/01 06:38:27;;;;;;;12.10;9.00;;;12.60;83.80;;;;;;5097301;28;20509;-41
2021/04/01 06:41:05;;;;;;;10.43;9.10;;;12.70;83.10;;;;;;5079910;28;20550;-40
2021/04/01 06:43:56;;;;;;;15.20;10.50;;;12.90;82.70;;;;;;5084860;28;20418;-41
2021/04/01 06:46:25;;;;;;;17.47;10.13;;;13.20;81.90;;;;;;5097420;28;20421;-41
2021/04/01 06:51:47;;;;;;;10.53;9.50;;;13.70;80.30;;;;;;5095808;28;20502;-41
2021/04/01 06:54:27;;;;;;;15.97;9.87;;;14.00;79.70;;;;;;5079209;28;20421;-43
2021/04/01 06:57:04;;;;;;;10.47;9.20;;;14.30;78.70;;;;;;5095853;28;20491;-41
2021/04/01 06:59:44;;;;;;;10.47;7.83;;;14.60;76.20;;;;;;5096151;28;20465;-42
2021/04/01 07:04:37;;;;;;;10.13;7.87;;;15.30;67.00;;;;;;5096589;28;20418;-42
2021/04/01 07:07:05;;;;;;;9.73;7.00;;;15.50;64.40;;;;;;5076833;28;20718;-41
2021/04/01 07:12:23;;;;;;;9.30;8.30;;;15.90;62.50;;;;;;5081510;28;20421;-42
2021/04/01 07:14:52;;;;;;;8.40;7.00;;;16.20;61.80;;;;;;5096789;28;20555;-40
2021/04/01 07:17:38;;;;;;;11.67;7.80;;;16.40;61.00;;;;;;5081004;28;20449;-41
2021/04/01 07:20:21;;;;;;;9.57;8.67;;;16.50;60.20;;;;;;5098734;28;20445;-42
2021/04/01 07:23:17;;;;;;;12.30;7.67;;;16.70;60.10;;;;;;5080652;28;20431;-41
2021/04/01 07:47:35;;;;;;;8.03;5.90;;;19.50;54.70;;;;;;5096264;28;20422;-43
2021/04/01 07:50:15;;;;;;;6.60;5.60;;;19.80;54.00;;;;;;5078608;28;20426;-41
2021/04/01 07:52:45;;;;;;;9.60;6.60;;;20.10;52.10;;;;;;5096854;28;20457;-41
2021/04/01 08:06:18;;;;;;;9.33;7.80;;;20.80;49.00;;;;;;5095994;28;20425;-43
2021/04/01 08:08:46;;;;;;;7.10;6.30;;;21.40;48.90;;;;;;5095446;28;20410;-43
2021/04/01 08:11:27;;;;;;;7.90;6.70;;;21.90;48.50;;;;;;5096181;28;20422;-43
2021/04/01 08:14:23;;;;;;;8.67;6.80;;;22.20;46.20;;;;;;5096069;28;20572;-42
2021/04/01 08:17:03;;;;;;;7.13;6.43;;;22.00;45.10;;;;;;5075782;28;20415;-42
2021/04/01 08:19:35;;;;;;;10.83;7.57;;;21.70;45.20;;;;;;5078770;28;20492;-43
2021/04/01 08:22:02;;;;;;;10.30;6.77;;;21.10;45.80;;;;;;5099109;28;20463;-42
2021/04/01 08:24:37;;;;;;;7.20;6.50;;;21.70;46.00;;;;;;5080256;28;20712;-42
2021/04/01 08:35:26;;;;;;;6.13;4.60;;;23.30;44.00;;;;;;5090817;28;20531;-44
2021/04/01 08:40:32;;;;;;;6.60;5.10;;;24.00;42.20;;;;;;5098468;28;20426;-43
2021/04/01 08:43:27;;;;;;;7.60;4.83;;;23.80;41.70;;;;;;5097321;28;20415;-43
2021/04/01 08:46:18;;;;;;;6.60;4.67;;;23.60;42.00;;;;;;5099066;28;20223;-43
2021/04/01 08:49:05;;;;;;;8.93;5.53;;;23.40;41.90;;;;;;5099944;28;20437;-42
2021/04/01 08:51:46;;;;;;;7.30;5.00;;;23.80;42.40;;;;;;5078786;28;20427;-43
2021/04/01 08:54:22;;;;;;;6.17;5.00;;;24.60;41.30;;;;;;5060916;28;20430;-43
2021/04/01 08:57:02;;;;;;;5.60;4.73;;;25.10;40.80;;;;;;5096040;28;20762;-41
2021/04/01 08:59:46;;;;;;;4.50;4.00;;;25.30;40.20;;;;;;5096935;28;20426;-42
2021/04/01 09:02:14;;;;;;;9.93;5.50;;;25.30;39.20;;;;;;5098703;28;20426;-43
2021/04/01 09:04:46;;;;;;;5.70;4.80;;;25.00;38.70;;;;;;5099000;28;20518;-40
2021/04/01 09:07:26;;;;;;;6.63;4.83;;;25.50;39.10;;;;;;5099661;28;20550;-43
2021/04/01 09:09:53;;;;;;;8.23;4.63;;;26.20;38.70;;;;;;5079318;28;20743;-43
2021/04/01 09:12:31;;;;;;;4.93;4.30;;;26.70;38.00;;;;;;5079236;28;20419;-43
2021/04/01 09:15:05;;;;;;;7.00;4.83;;;27.00;37.90;;;;;;5097092;28;20767;-43
2021/04/01 09:17:35;;;;;;;6.97;4.10;;;26.70;36.80;;;;;;5097312;28;20728;-44
2021/04/01 09:20:15;;;;;;;6.60;4.63;;;27.10;37.30;;;;;;5097791;28;20438;-42
2021/04/01 09:22:47;;;;;;;7.60;4.67;;;27.30;36.90;;;;;;5097111;28;20948;-43
2021/04/01 09:25:13;;;;;;;7.83;5.30;;;27.60;36.80;;;;;;5097939;28;20504;-43
2021/04/01 09:27:45;;;;;;;7.57;4.30;;;26.70;36.00;;;;;;5097679;28;20430;-43
2021/04/01 09:30:11;;;;;;;7.03;5.27;;;26.30;36.60;;;;;;5097976;28;20445;-43
2021/04/01 09:32:38;;;;;;;7.90;4.40;;;26.10;36.90;;;;;;5097822;28;20450;-42
2021/04/01 09:35:05;;;;;;;6.17;4.50;;;26.40;37.00;;;;;;5096013;28;20748;-44
2021/04/01 09:37:32;;;;;;;5.33;4.20;;;26.50;37.30;;;;;;5097204;28;20430;-43
2021/04/01 09:40:11;;;;;;;6.00;4.70;;;26.60;37.20;;;;;;5080612;28;20450;-42
2021/04/01 09:42:42;;;;;;;6.07;4.47;;;26.50;36.80;;;;;;5080905;28;20425;-43
2021/04/01 09:45:09;;;;;;;5.57;4.70;;;26.40;36.90;;;;;;5100485;28;20453;-43
2021/04/01 09:47:47;;;;;;;4.40;4.00;;;26.30;36.90;;;;;;5097781;28;20650;-42
2021/04/01 09:50:14;;;;;;;6.53;4.70;;;26.20;37.30;;;;;;5080759;28;20712;-43
2021/04/01 09:52:42;;;;;;;5.97;4.50;;;26.10;37.70;;;;;;5080240;28;20410;-43
2021/04/01 09:55:14;;;;;;;5.77;4.90;;;26.20;37.10;;;;;;5079446;28;20477;-43
2021/04/01 09:57:46;;;;;;;7.67;4.53;;;26.50;37.60;;;;;;5097040;28;20435;-42
2021/04/01 10:03:28;;;;;;;5.33;4.50;;;26.90;37.50;;;;;;5096815;28;20445;-43
2021/04/01 10:05:54;;;;;;;7.23;4.90;;;27.20;37.80;;;;;;5097381;28;20649;-43
2021/04/01 10:08:36;;;;;;;7.23;5.20;;;27.50;37.20;;;;;;5080155;28;20559;-40
2021/04/01 10:11:08;;;;;;;5.50;4.67;;;28.00;36.60;;;;;;5096976;28;20422;-43
2021/04/01 10:13:34;;;;;;;5.33;4.83;;;28.40;35.80;;;;;;5096033;28;20490;-43
2021/04/01 10:16:03;;;;;;;7.10;5.27;;;28.80;35.80;;;;;;5079360;28;20506;-43
2021/04/01 10:18:36;;;;;;;8.13;4.80;;;29.00;35.40;;;;;;5097379;28;20455;-44
2021/04/01 10:21:09;;;;;;;7.73;5.30;;;29.50;34.90;;;;;;5097379;28;20822;-44
2021/04/01 10:24:04;;;;;;;6.50;4.93;;;31.20;34.10;;;;;;5095618;28;20429;-43
2021/04/01 10:26:42;;;;;;;6.63;5.00;;;33.30;32.80;;;;;;5097227;28;20488;-43
2021/04/01 10:29:11;;;;;;;5.73;5.07;;;34.60;30.40;;;;;;5097428;28;20727;-44
2021/04/01 10:31:47;;;;;;;5.83;5.33;;;36.40;29.10;;;;;;5080879;28;20427;-43
2021/04/01 10:34:36;;;;;;;5.50;5.00;;;36.10;28.00;;;;;;5098122;28;20772;-43
2021/04/01 10:37:07;;;;;;;9.47;5.20;;;36.30;28.10;;;;;;5098903;28;20495;-42
2021/04/01 10:39:37;;;;;;;6.63;4.63;;;37.30;27.30;;;;;;5097710;28;20457;-42
2021/04/01 10:42:06;;;;;;;9.27;5.40;;;38.00;26.80;;;;;;5096928;28;20805;-42
2021/04/01 10:44:32;;;;;;;10.13;5.53;;;39.00;26.50;;;;;;5096012;28;20731;-42
2021/04/01 10:47:00;;;;;;;6.67;4.20;;;39.90;26.60;;;;;;5096183;28;20426;-43
2021/04/01 10:49:31;;;;;;;5.60;4.27;;;37.70;26.00;;;;;;5096566;28;20183;-43
2021/04/01 10:51:58;;;;;;;5.80;4.83;;;36.80;25.90;;;;;;5096485;28;20426;-43
2021/04/01 10:54:26;;;;;;;8.97;5.10;;;37.90;26.50;;;;;;5097496;28;20388;-44
2021/04/01 10:56:55;;;;;;;8.93;4.73;;;38.80;26.00;;;;;;5077760;28;20682;-43
2021/04/01 10:59:44;;;;;;;4.63;4.23;;;36.70;25.90;;;;;;5097288;28;20418;-44
2021/04/01 11:02:15;;;;;;;5.70;4.23;;;37.70;25.80;;;;;;5097316;28;20418;-43
2021/04/01 11:04:46;;;;;;;7.23;4.37;;;37.80;25.90;;;;;;5098065;28;20430;-42
2021/04/01 11:07:12;;;;;;;7.10;5.57;;;35.60;26.00;;;;;;5097194;28;20501;-43
2021/04/01 11:09:40;;;;;;;4.50;3.90;;;35.30;27.20;;;;;;5097372;28;20429;-44
2021/04/01 11:14:39;;;;;;;5.63;4.30;;;34.60;26.60;;;;;;5096977;28;20721;-43
2021/04/01 11:17:08;;;;;;;7.10;5.03;;;35.70;27.10;;;;;;5097259;28;20404;-45
2021/04/01 11:19:36;;;;;;;5.43;4.60;;;34.10;26.50;;;;;;5097004;28;20483;-44
2021/04/01 11:22:03;;;;;;;4.90;4.47;;;34.40;27.20;;;;;;5079359;28;20476;-43
2021/04/01 11:24:33;;;;;;;5.07;4.47;;;36.00;26.90;;;;;;5096899;28;20430;-42
2021/04/01 11:27:14;;;;;;;4.37;4.00;;;37.60;26.50;;;;;;5096830;28;20887;-43
2021/04/01 11:29:49;;;;;;;4.83;4.33;;;38.30;25.80;;;;;;5095556;28;20707;-42
2021/04/01 11:32:23;;;;;;;6.70;4.90;;;38.90;25.20;;;;;;5095843;28;20441;-42
2021/04/01 11:34:52;;;;;;;4.10;3.80;;;39.30;24.90;;;;;;5096706;28;20434;-43
2021/04/01 11:37:22;;;;;;;4.93;4.30;;;39.90;24.90;;;;;;5095288;28;20450;-43
2021/04/01 11:39:50;;;;;;;4.97;4.47;;;39.40;24.30;;;;;;5095433;28;20381;-43
2021/04/01 11:42:18;;;;;;;4.47;4.07;;;40.70;24.80;;;;;;5094197;28;20738;-42
2021/04/01 11:44:47;;;;;;;4.70;4.03;;;41.40;24.10;;;;;;5095913;28;20432;-43
2021/04/01 11:47:20;;;;;;;6.00;4.10;;;41.60;24.00;;;;;;5095986;28;20446;-43
2021/04/01 11:49:48;;;;;;;4.40;4.00;;;41.20;23.30;;;;;;5095370;28;20418;-43
2021/04/01 11:52:19;;;;;;;4.67;4.07;;;39.50;24.00;;;;;;5095343;28;20851;-43
2021/04/01 11:54:45;;;;;;;4.80;3.93;;;38.70;24.60;;;;;;5096426;28;20422;-40
2021/04/01 11:57:22;;;;;;;4.87;4.47;;;37.80;24.80;;;;;;5100810;28;20547;-43
2021/04/01 12:00:16;;;;;;;5.97;4.17;;;37.50;25.10;;;;;;5099893;28;20441;-43
2021/04/01 12:02:54;;;;;;;4.77;4.27;;;37.30;24.90;;;;;;5100321;28;20410;-43
2021/04/01 12:05:21;;;;;;;7.43;3.73;;;38.10;25.20;;;;;;5098043;28;20476;-42
2021/04/01 12:07:47;;;;;;;3.30;3.00;;;39.00;24.70;;;;;;5079824;28;20414;-43
2021/04/01 12:10:14;;;;;;;3.63;2.90;;;36.60;24.40;;;;;;5078095;28;20475;-43
2021/04/01 12:12:40;;;;;;;3.67;3.30;;;37.40;24.30;;;;;;5096729;28;20173;-42
2021/04/01 12:15:08;;;;;;;5.17;2.80;;;38.10;24.50;;;;;;5096211;28;20953;-42
2021/04/01 12:17:41;;;;;;;3.37;3.17;;;38.30;24.40;;;;;;5096640;28;20402;-43
2021/04/01 12:20:13;;;;;;;3.40;3.00;;;38.10;24.20;;;;;;5098387;28;20490;-44
2021/04/01 12:22:42;;;;;;;3.90;2.80;;;38.00;24.60;;;;;;5097613;28;20525;-43
2021/04/01 12:25:13;;;;;;;3.33;3.03;;;37.90;24.60;;;;;;5099726;28;20883;-43
2021/04/01 12:27:39;;;;;;;4.73;3.43;;;38.40;24.30;;;;;;5099749;28;20430;-43
2021/04/01 12:30:09;;;;;;;3.83;3.10;;;39.00;24.30;;;;;;5099450;28;20426;-42
2021/04/01 12:32:35;;;;;;;4.80;3.23;;;38.20;24.00;;;;;;5099747;28;20410;-43
2021/04/01 12:35:27;;;;;;;5.17;2.90;;;38.10;24.00;;;;;;5099068;28;20476;-43
2021/04/01 12:38:00;;;;;;;3.37;3.03;;;37.50;24.00;;;;;;5095150;28;20430;-42
2021/04/01 12:40:27;;;;;;;5.53;3.33;;;36.60;25.00;;;;;;5100156;28;20418;-42
2021/04/01 12:42:53;;;;;;;3.50;3.20;;;35.90;25.20;;;;;;5099358;28;20423;-43
2021/04/01 12:45:22;;;;;;;3.40;3.10;;;36.30;24.80;;;;;;5098744;28;20473;-43
2021/04/01 12:47:51;;;;;;;3.67;2.93;;;35.70;25.40;;;;;;5097316;28;20423;-43
2021/04/01 12:50:17;;;;;;;5.30;2.90;;;36.20;25.00;;;;;;5096761;28;20429;-43
2021/04/01 12:52:44;;;;;;;3.20;2.90;;;37.50;24.60;;;;;;5097418;28;20418;-43
2021/04/01 12:55:12;;;;;;;3.50;3.20;;;38.30;24.30;;;;;;5081505;28;20173;-43
2021/04/01 12:57:43;;;;;;;4.33;3.80;;;38.60;23.90;;;;;;5099468;28;20517;-42
2021/04/01 13:00:10;;;;;;;3.30;3.00;;;38.80;23.80;;;;;;5082509;28;20426;-44
2021/04/01 13:02:36;;;;;;;3.97;3.57;;;38.90;23.70;;;;;;5099452;28;20831;-44
2021/04/01 13:05:04;;;;;;;6.93;3.97;;;39.30;23.90;;;;;;5096327;28;20505;-43
2021/04/01 13:12:49;;;;;;;3.83;3.17;;;36.30;24.50;;;;;;5097706;28;20717;-44
2021/04/01 13:15:15;;;;;;;3.67;3.10;;;37.30;24.50;;;;;;5098994;28;20470;-43
2021/04/01 13:17:42;;;;;;;3.93;3.40;;;38.30;24.00;;;;;;5098697;28;20202;-43
2021/04/01 13:20:08;;;;;;;4.33;3.67;;;38.50;24.00;;;;;;5098574;28;20470;-44
2021/04/01 13:25:18;;;;;;;9.07;4.00;;;38.80;23.70;;;;;;5082553;28;20627;-43
2021/04/01 13:27:45;;;;;;;5.40;3.73;;;37.00;24.00;;;;;;5097290;28;20418;-43
2021/04/01 13:30:12;;;;;;;4.20;3.53;;;37.40;24.50;;;;;;5097799;28;20507;-43
2021/04/01 13:32:48;;;;;;;5.40;4.40;;;37.60;23.90;;;;;;5079074;28;20430;-43
2021/04/01 13:38:03;;;;;;;4.50;4.10;;;36.50;24.70;;;;;;5079427;28;20425;-43
2021/04/01 13:40:29;;;;;;;5.00;4.40;;;36.20;25.00;;;;;;5081193;28;20426;-43
2021/04/01 13:42:58;;;;;;;5.30;4.73;;;34.90;25.60;;;;;;5096922;28;20637;-43
2021/04/01 13:45:27;;;;;;;5.40;4.17;;;34.20;25.60;;;;;;5098210;28;20458;-43
2021/04/01 13:48:05;;;;;;;5.03;3.97;;;33.70;25.70;;;;;;5098448;28;20397;-43
2021/04/01 13:50:33;;;;;;;4.33;3.97;;;33.20;25.90;;;;;;5098842;28;20385;-44
2021/04/01 13:55:47;;;;;;;5.90;4.03;;;33.60;26.00;;;;;;5097204;28;20449;-43
2021/04/01 14:08:55;;;;;;;5.40;3.93;;;32.80;26.20;;;;;;5097458;28;20393;-44
2021/04/01 14:09:49;;;;;;;5.13;4.27;;;31.30;27.70;;;;;;5096109;28;20424;-43
2021/04/01 14:12:19;;;;;;;7.50;4.20;;;30.80;27.90;;;;;;5098492;28;20408;-44
2021/04/01 14:14:46;;;;;;;7.43;4.73;;;30.50;28.10;;;;;;5098560;28;20445;-50
2021/04/01 14:17:13;;;;;;;4.73;4.30;;;30.50;27.80;;;;;;5096081;28;20521;-43
2021/04/01 14:19:40;;;;;;;5.93;5.13;;;30.70;27.80;;;;;;5096762;28;20403;-43
2021/04/01 14:22:06;;;;;;;6.80;5.43;;;31.10;27.50;;;;;;5098259;28;20389;-43
2021/04/01 14:24:37;;;;;;;7.33;4.53;;;31.60;27.20;;;;;;5099014;28;20922;-44
2021/04/01 14:29:40;;;;;;;6.03;5.23;;;31.70;26.90;;;;;;5097872;28;20681;-41
2021/04/01 14:32:07;;;;;;;6.33;4.60;;;31.10;27.20;;;;;;5096327;28;20496;-43
2021/04/01 14:34:34;;;;;;;5.70;4.80;;;30.60;27.30;;;;;;5061631;28;20406;-44
2021/04/01 14:37:02;;;;;;;5.30;4.40;;;30.30;27.80;;;;;;5097261;28;20542;-42
2021/04/01 14:39:30;;;;;;;7.83;5.10;;;30.50;27.70;;;;;;5097521;28;20445;-44
2021/04/01 14:42:08;;;;;;;5.67;5.17;;;30.70;27.70;;;;;;5096501;28;20535;-44
2021/04/01 14:44:34;;;;;;;6.03;4.80;;;30.50;27.90;;;;;;5095796;28;20737;-43
2021/04/01 14:47:01;;;;;;;8.00;4.57;;;30.10;28.10;;;;;;5096529;28;20553;-44
2021/04/01 14:49:26;;;;;;;6.70;5.17;;;29.80;28.30;;;;;;5096591;28;20378;-44
2021/04/01 14:51:53;;;;;;;5.53;5.00;;;29.20;28.50;;;;;;5096033;28;20404;-43
2021/04/01 14:54:26;;;;;;;8.27;4.27;;;28.80;28.80;;;;;;5095251;28;20180;-43
2021/04/01 14:56:57;;;;;;;6.40;5.60;;;28.60;29.10;;;;;;5096222;28;20844;-43
2021/04/01 14:59:27;;;;;;;6.93;5.43;;;28.60;29.10;;;;;;5097340;28;20805;-43
2021/04/01 15:01:54;;;;;;;10.23;5.43;;;28.90;29.20;;;;;;5097097;28;20743;-43
2021/04/01 15:04:20;;;;;;;8.83;5.80;;;28.90;28.90;;;;;;5077182;28;20729;-43